createdAt,value
2023-04-11T00:01:49.903Z,8.02
2023-04-11T00:04:17.502Z,8.98
2023-04-11T00:06:44.164Z,8.93
2023-04-11T00:09:13.719Z,8.32
2023-04-11T00:11:40.588Z,8.50
2023-04-11T00:14:09.056Z,8.80
2023-04-11T00:16:36.002Z,7.63
2023-04-11T00:19:02.732Z,7.88
2023-04-11T00:21:29.348Z,8.27
2023-04-11T00:23:56.296Z,8.75
2023-04-11T00:26:23.258Z,8.13
2023-04-11T00:28:49.818Z,9.15
2023-04-11T00:31:16.540Z,9.02
2023-04-11T00:33:43.133Z,9.13
2023-04-11T00:36:10.757Z,9.15
2023-04-11T00:38:38.223Z,9.32
2023-04-11T00:41:04.817Z,8.38
2023-04-11T00:43:31.434Z,9.50
2023-04-11T00:45:58.174Z,9.50
2023-04-11T00:48:28.415Z,9.07
2023-04-11T00:50:55.609Z,9.18
2023-04-11T00:53:23.333Z,9.88
2023-04-11T00:55:50.776Z,8.13
2023-04-11T00:58:18.317Z,9.00
2023-04-11T01:00:45.103Z,9.57
2023-04-11T01:03:12.319Z,10.27
2023-04-11T01:05:39.360Z,9.40
2023-04-11T01:08:07.750Z,9.70
2023-04-11T01:10:34.806Z,9.63
2023-04-11T01:13:01.640Z,9.48
2023-04-11T01:15:28.918Z,9.43
2023-04-11T01:17:57.902Z,9.23
2023-04-11T01:20:26.475Z,8.88
2023-04-11T01:22:54.243Z,9.60
2023-04-11T01:25:22.377Z,8.88
2023-04-11T01:27:49.085Z,9.52
2023-04-11T01:30:16.332Z,9.38
2023-04-11T01:32:43.188Z,9.35
2023-04-11T01:35:11.522Z,9.85
2023-04-11T01:37:39.063Z,9.48
2023-04-11T01:40:06.883Z,9.75
2023-04-11T01:42:34.440Z,9.68
2023-04-11T01:45:01.794Z,9.70
2023-04-11T01:47:28.429Z,10.13
2023-04-11T01:49:56.119Z,9.48
2023-04-11T01:52:22.810Z,9.05
2023-04-11T01:54:49.357Z,9.40
2023-04-11T01:57:15.952Z,9.10
2023-04-11T01:59:42.528Z,9.32
2023-04-11T02:02:09.387Z,9.80
2023-04-11T02:04:36.274Z,9.75
2023-04-11T02:07:02.941Z,10.32
2023-04-11T02:09:29.512Z,9.70
2023-04-11T02:11:57.122Z,10.07
2023-04-11T02:14:25.348Z,10.85
2023-04-11T02:16:56.410Z,10.32
2023-04-11T02:19:25.968Z,10.48
2023-04-11T02:21:52.773Z,11.18
2023-04-11T02:24:19.416Z,11.50
2023-04-11T02:26:46.176Z,11.40
2023-04-11T02:29:12.838Z,12.30
2023-04-11T02:31:39.530Z,12.65
2023-04-11T02:34:06.211Z,14.02
2023-04-11T02:36:32.819Z,16.17
2023-04-11T02:38:59.377Z,14.68
2023-04-11T02:41:26.310Z,15.25
2023-04-11T02:43:52.987Z,15.27
2023-04-11T02:46:19.564Z,13.70
2023-04-11T02:48:46.217Z,12.65
2023-04-11T02:51:12.959Z,13.73
2023-04-11T02:53:39.711Z,13.27
2023-04-11T02:56:07.913Z,13.20
2023-04-11T02:58:34.788Z,13.77
2023-04-11T03:01:01.856Z,12.57
2023-04-11T03:03:28.636Z,13.48
2023-04-11T03:05:57.095Z,13.30
2023-04-11T03:08:23.871Z,13.88
2023-04-11T03:10:50.581Z,14.52
2023-04-11T03:13:17.203Z,14.13
2023-04-11T03:15:44.101Z,14.00
2023-04-11T03:18:10.760Z,14.40
2023-04-11T03:20:37.408Z,14.70
2023-04-11T03:23:04.039Z,14.77
2023-04-11T03:25:30.648Z,14.15
2023-04-11T03:27:57.548Z,14.55
2023-04-11T03:33:27.693Z,15.00
2023-04-11T03:35:54.522Z,14.85
2023-04-11T03:38:21.366Z,14.60
2023-04-11T03:40:48.315Z,15.57
2023-04-11T03:43:16.947Z,13.95
2023-04-11T03:45:43.815Z,15.07
2023-04-11T03:48:10.759Z,15.68
2023-04-11T03:50:37.618Z,15.85
2023-04-11T03:53:04.964Z,16.35
2023-04-11T03:55:31.857Z,16.15
2023-04-11T03:57:58.434Z,16.95
2023-04-11T04:00:25.015Z,17.50
2023-04-11T04:02:51.743Z,18.90
2023-04-11T04:05:18.539Z,16.70
2023-04-11T04:07:45.155Z,15.90
2023-04-11T04:10:11.902Z,15.38
2023-04-11T04:12:39.511Z,15.68
2023-04-11T04:15:06.641Z,15.68
2023-04-11T04:17:33.470Z,16.20
2023-04-11T04:20:00.207Z,17.40
2023-04-11T04:22:26.890Z,16.02
2023-04-11T04:24:53.486Z,16.95
2023-04-11T04:27:20.097Z,16.83
2023-04-11T04:29:47.083Z,15.25
2023-04-11T04:32:23.944Z,16.70
2023-04-11T04:34:56.001Z,18.55
2023-04-11T04:37:24.672Z,18.23
2023-04-11T04:39:55.065Z,17.90
2023-04-11T04:42:23.597Z,17.25
2023-04-11T04:44:51.443Z,19.63
2023-04-11T04:47:21.572Z,20.35
2023-04-11T04:49:48.242Z,19.20
2023-04-11T04:52:16.069Z,17.85
2023-04-11T04:54:43.028Z,17.45
2023-04-11T04:57:09.709Z,19.30
2023-04-11T04:59:36.470Z,17.65
2023-04-11T05:02:03.641Z,17.70
2023-04-11T05:04:32.032Z,17.40
2023-04-11T05:06:59.178Z,20.15
2023-04-11T05:09:26.381Z,17.42
2023-04-11T05:11:53.064Z,16.17
2023-04-11T05:14:19.645Z,17.48
2023-04-11T05:16:46.630Z,16.63
2023-04-11T05:19:13.338Z,18.52
2023-04-11T05:21:40.170Z,18.10
2023-04-11T05:24:06.937Z,16.75
2023-04-11T05:26:33.685Z,18.30
2023-04-11T05:29:01.014Z,16.58
2023-04-11T05:31:27.768Z,15.77
2023-04-11T05:33:54.757Z,16.95
2023-04-11T05:36:21.584Z,16.83
2023-04-11T05:38:49.035Z,16.48
2023-04-11T05:41:15.724Z,15.45
2023-04-11T05:43:42.474Z,15.07
2023-04-11T05:46:09.585Z,15.30
2023-04-11T05:48:36.351Z,14.50
2023-04-11T05:51:03.139Z,14.40
2023-04-11T05:53:29.864Z,14.50
2023-04-11T05:55:56.603Z,14.07
2023-04-11T05:58:24.375Z,14.55
2023-04-11T06:00:51.161Z,14.18
2023-04-11T06:03:17.925Z,13.55
2023-04-11T06:05:44.699Z,13.40
2023-04-11T06:08:12.128Z,12.80
2023-04-11T06:10:38.794Z,13.63
2023-04-11T06:13:05.503Z,13.98
2023-04-11T06:15:32.195Z,11.35
2023-04-11T06:17:59.115Z,10.77
2023-04-11T06:20:25.887Z,10.68
2023-04-11T06:22:52.540Z,10.73
2023-04-11T06:25:20.637Z,11.65
2023-04-11T06:27:48.380Z,12.63
2023-04-11T06:30:15.693Z,9.50
2023-04-11T06:32:42.464Z,9.75
2023-04-11T06:35:09.688Z,8.77
2023-04-11T06:37:36.280Z,8.57
2023-04-11T06:40:05.446Z,8.35
2023-04-11T06:42:32.081Z,6.93
2023-04-11T06:44:58.738Z,8.07
2023-04-11T06:47:25.499Z,7.75
2023-04-11T06:49:52.301Z,6.82
2023-04-11T06:52:18.981Z,7.47
2023-04-11T06:54:47.629Z,7.18
2023-04-11T06:57:14.200Z,7.53
2023-04-11T06:59:40.819Z,8.15
2023-04-11T07:02:07.958Z,9.05
2023-04-11T07:04:34.918Z,7.88
2023-04-11T07:07:01.648Z,8.70
2023-04-11T07:09:28.343Z,21.25
2023-04-11T07:11:55.074Z,21.63
2023-04-11T07:14:21.732Z,13.05
2023-04-11T07:16:48.297Z,11.40
2023-04-11T07:19:14.970Z,23.67
2023-04-11T07:21:42.102Z,10.65
2023-04-11T07:24:10.588Z,9.10
2023-04-11T07:26:38.588Z,8.05
2023-04-11T07:29:05.515Z,9.38
2023-04-11T07:31:33.045Z,8.25
2023-04-11T07:33:59.764Z,10.95
2023-04-11T07:36:26.984Z,8.45
2023-04-11T07:38:54.060Z,9.43
2023-04-11T07:41:20.644Z,8.82
2023-04-11T07:43:47.171Z,7.47
2023-04-11T07:46:15.068Z,7.93
2023-04-11T07:48:42.316Z,8.32
2023-04-11T07:51:09.048Z,10.75
2023-04-11T07:53:36.363Z,8.15
2023-04-11T07:56:03.021Z,7.85
2023-04-11T07:58:30.253Z,6.88
2023-04-11T08:00:58.856Z,6.18
2023-04-11T08:03:25.580Z,7.05
2023-04-11T08:05:52.509Z,6.63
2023-04-11T08:08:19.208Z,7.47
2023-04-11T08:10:45.789Z,5.40
2023-04-11T08:13:12.396Z,6.03
2023-04-11T08:15:39.057Z,7.13
2023-04-11T08:18:05.910Z,15.38
2023-04-11T08:20:32.564Z,6.28
2023-04-11T08:22:59.684Z,11.07
2023-04-11T08:25:26.441Z,8.15
2023-04-11T08:27:53.145Z,5.53
2023-04-11T08:30:20.624Z,5.90
2023-04-11T08:32:47.312Z,4.20
2023-04-11T08:35:14.015Z,5.45
2023-04-11T08:37:41.608Z,17.08
2023-04-11T08:40:09.210Z,4.25
2023-04-11T08:42:36.202Z,4.22
2023-04-11T08:45:05.356Z,4.43
2023-04-11T08:47:32.142Z,4.32
2023-04-11T08:49:58.828Z,4.50
2023-04-11T08:52:25.892Z,4.47
2023-04-11T08:54:56.252Z,4.18
2023-04-11T08:57:33.348Z,4.95
2023-04-11T09:00:08.353Z,6.47
2023-04-11T09:02:35.086Z,4.43
2023-04-11T09:05:01.871Z,4.63
2023-04-11T09:07:29.119Z,4.82
2023-04-11T09:09:55.744Z,4.00
2023-04-11T09:12:29.733Z,5.05
2023-04-11T09:14:56.498Z,4.05
2023-04-11T09:17:23.137Z,5.30
2023-04-11T09:19:49.806Z,4.47
2023-04-11T09:22:16.550Z,5.28
2023-04-11T09:24:43.180Z,3.53
2023-04-11T09:27:19.507Z,5.10
2023-04-11T09:29:48.227Z,5.45
2023-04-11T09:32:35.877Z,4.90
2023-04-11T09:35:16.755Z,5.13
2023-04-11T09:37:47.761Z,5.40
2023-04-11T09:40:16.486Z,5.82
2023-04-11T09:42:44.398Z,7.18
2023-04-11T09:45:18.841Z,6.00
2023-04-11T09:47:47.257Z,4.45
2023-04-11T09:50:14.634Z,5.28
2023-04-11T09:52:43.244Z,6.15
2023-04-11T09:55:14.283Z,4.93
2023-04-11T09:57:45.989Z,6.43
2023-04-11T10:00:18.882Z,6.78
2023-04-11T10:02:53.679Z,4.93
2023-04-11T10:05:26.911Z,5.85
2023-04-11T10:08:14.397Z,5.43
2023-04-11T10:10:43.370Z,5.40
2023-04-11T10:13:48.840Z,5.18
2023-04-11T10:16:17.370Z,4.95
2023-04-11T10:18:53.002Z,4.30
2023-04-11T10:21:34.749Z,5.07
2023-04-11T10:24:18.410Z,4.88
2023-04-11T10:26:52.625Z,5.00
2023-04-11T10:29:28.374Z,5.45
2023-04-11T10:32:19.399Z,5.35
2023-04-11T10:34:52.128Z,5.95
2023-04-11T10:37:19.660Z,5.13
2023-04-11T10:39:52.152Z,4.90
2023-04-11T10:42:34.093Z,6.35
2023-04-11T10:45:22.159Z,4.88
2023-04-11T10:48:00.397Z,7.72
2023-04-11T10:50:26.970Z,6.30
2023-04-11T10:52:57.518Z,6.50
2023-04-11T10:55:27.111Z,4.85
2023-04-11T10:58:09.822Z,3.22
2023-04-11T11:00:51.508Z,5.28
2023-04-11T11:03:26.347Z,3.10
2023-04-11T11:06:01.423Z,3.53
2023-04-11T11:08:34.264Z,4.63
2023-04-11T11:11:02.502Z,4.13
2023-04-11T11:14:01.448Z,4.40
2023-04-11T11:16:28.171Z,5.18
2023-04-11T11:18:59.142Z,4.93
2023-04-11T11:21:28.862Z,4.75
2023-04-11T11:24:03.480Z,4.78
2023-04-11T11:26:36.250Z,4.68
2023-04-11T11:29:03.674Z,5.22
2023-04-11T11:31:45.905Z,5.82
2023-04-11T11:34:23.662Z,5.85
2023-04-11T11:36:51.562Z,4.22
2023-04-11T11:39:19.080Z,4.50
2023-04-11T11:41:47.303Z,4.43
2023-04-11T11:44:28.030Z,4.22
2023-04-11T11:47:04.717Z,4.85
2023-04-11T11:49:44.539Z,4.45
2023-04-11T11:52:12.157Z,4.70
2023-04-11T11:54:47.152Z,4.50
2023-04-11T11:57:22.950Z,5.07
2023-04-11T11:59:57.218Z,3.25
2023-04-11T12:02:28.012Z,4.22
2023-04-11T12:05:00.341Z,4.68
2023-04-11T12:07:32.695Z,3.85
2023-04-11T12:10:09.345Z,5.00
2023-04-11T12:12:41.113Z,4.22
2023-04-11T12:15:12.137Z,4.07
2023-04-11T12:17:39.527Z,4.28
2023-04-11T12:20:15.995Z,5.10
2023-04-11T12:22:42.746Z,4.10
2023-04-11T12:25:10.679Z,4.10
2023-04-11T12:27:42.924Z,5.05
2023-04-11T12:30:11.249Z,5.07
2023-04-11T12:32:38.303Z,4.03
2023-04-11T12:35:06.505Z,5.30
2023-04-11T12:37:34.202Z,4.07
2023-04-11T12:40:01.372Z,3.47
2023-04-11T12:42:28.031Z,5.13
2023-04-11T12:44:54.721Z,4.72
2023-04-11T12:47:21.887Z,5.47
2023-04-11T12:49:48.534Z,4.03
2023-04-11T12:52:15.188Z,3.83
2023-04-11T12:54:41.926Z,3.60
2023-04-11T12:57:08.590Z,4.30
2023-04-11T12:59:35.304Z,2.80
2023-04-11T13:02:02.424Z,4.03
2023-04-11T13:04:29.179Z,3.80
2023-04-11T13:07:00.850Z,3.45
2023-04-11T13:09:34.444Z,3.78
2023-04-11T13:12:04.716Z,3.90
2023-04-11T13:14:31.342Z,4.32
2023-04-11T13:16:57.990Z,4.47
2023-04-11T13:19:24.767Z,3.47
2023-04-11T13:21:51.780Z,2.92
2023-04-11T13:24:18.388Z,3.60
2023-04-11T13:26:45.164Z,4.57
2023-04-11T13:29:14.584Z,3.85
2023-04-11T13:31:41.515Z,3.03
2023-04-11T13:34:08.214Z,2.72
2023-04-11T13:36:35.748Z,3.75
2023-04-11T13:39:02.509Z,3.40
2023-04-11T13:41:29.015Z,3.85
2023-04-11T13:43:55.577Z,4.57
2023-04-11T13:46:22.288Z,4.00
2023-04-11T13:48:49.107Z,5.65
2023-04-11T13:51:15.976Z,5.03
2023-04-11T13:53:43.024Z,4.80
2023-04-11T13:56:10.661Z,3.90
2023-04-11T13:58:38.297Z,4.10
2023-04-11T14:01:05.144Z,4.55
2023-04-11T14:03:33.712Z,4.60
2023-04-11T14:06:01.448Z,5.32
2023-04-11T14:08:29.094Z,6.03
2023-04-11T14:10:56.212Z,9.98
2023-04-11T14:13:23.008Z,8.25
2023-04-11T14:16:04.818Z,6.75
2023-04-11T14:18:35.313Z,5.63
2023-04-11T14:21:02.064Z,5.55
2023-04-11T14:23:29.431Z,6.03
2023-04-11T14:25:56.097Z,6.03
2023-04-11T14:28:26.486Z,5.63
2023-04-11T14:30:53.899Z,6.30
2023-04-11T14:33:20.846Z,6.75
2023-04-11T14:35:47.497Z,5.45
2023-04-11T14:38:15.870Z,5.95
2023-04-11T14:40:43.135Z,7.03
2023-04-11T14:43:09.798Z,6.93
2023-04-11T14:45:36.705Z,6.95
2023-04-11T14:48:03.578Z,7.20
2023-04-11T14:50:30.275Z,6.97
2023-04-11T14:52:57.091Z,12.10
2023-04-11T14:55:24.264Z,10.57
2023-04-11T14:57:55.553Z,6.90
2023-04-11T15:00:22.774Z,8.23
2023-04-11T15:02:54.759Z,7.25
2023-04-11T15:05:23.317Z,9.32
2023-04-11T15:07:52.604Z,9.00
2023-04-11T15:10:21.419Z,8.48
2023-04-11T15:12:48.154Z,7.13
2023-04-11T15:15:16.082Z,7.80
2023-04-11T15:17:46.988Z,7.47
2023-04-11T15:20:17.011Z,7.05
2023-04-11T15:22:45.580Z,7.65
2023-04-11T15:25:14.145Z,7.50
2023-04-11T15:27:41.482Z,7.70
2023-04-11T15:30:08.784Z,7.38
2023-04-11T15:32:35.738Z,6.85
2023-04-11T15:35:02.658Z,6.88
2023-04-11T15:37:29.355Z,7.88
2023-04-11T15:39:57.730Z,7.25
2023-04-11T15:42:24.731Z,7.45
2023-04-11T15:44:51.548Z,8.00
2023-04-11T15:47:18.538Z,8.20
2023-04-11T15:49:45.381Z,10.95
2023-04-11T15:52:12.326Z,8.98
2023-04-11T15:54:38.982Z,7.90
2023-04-11T15:57:05.734Z,7.80
2023-04-11T15:59:33.517Z,8.18
2023-04-11T16:02:00.358Z,7.78
2023-04-11T16:04:27.328Z,8.05
2023-04-11T16:06:54.486Z,7.93
2023-04-11T16:09:21.136Z,8.27
2023-04-11T16:11:48.145Z,7.45
2023-04-11T16:14:14.932Z,8.05
2023-04-11T16:16:46.265Z,8.20
2023-04-11T16:19:12.992Z,9.00
2023-04-11T16:21:39.796Z,8.85
2023-04-11T16:24:06.465Z,8.93
2023-04-11T16:26:33.307Z,8.07
2023-04-11T16:28:59.947Z,8.88
2023-04-11T16:31:26.610Z,9.02
2023-04-11T16:33:53.853Z,9.77
2023-04-11T16:36:22.007Z,9.23
2023-04-11T16:38:51.878Z,9.20
2023-04-11T16:41:18.638Z,9.48
2023-04-11T16:43:45.197Z,9.50
2023-04-11T16:46:15.483Z,9.93
2023-04-11T16:48:43.009Z,9.77
2023-04-11T16:51:13.321Z,10.27
2023-04-11T16:53:40.968Z,9.95
2023-04-11T16:56:09.530Z,10.38
2023-04-11T16:58:37.500Z,9.15
2023-04-11T17:01:04.371Z,8.65
2023-04-11T17:03:31.195Z,9.10
2023-04-11T17:05:58.291Z,10.15
2023-04-11T17:08:26.482Z,10.77
2023-04-11T17:10:53.427Z,9.13
2023-04-11T17:13:20.221Z,8.98
2023-04-11T17:15:46.975Z,8.93
2023-04-11T17:18:15.000Z,12.02
2023-04-11T17:20:43.636Z,8.30
2023-04-11T17:23:10.380Z,9.25
2023-04-11T17:25:37.420Z,9.75
2023-04-11T17:28:04.236Z,9.07
2023-04-11T17:30:32.205Z,8.75
2023-04-11T17:32:59.514Z,8.88
2023-04-11T17:35:27.948Z,9.98
2023-04-11T17:37:55.389Z,10.00
2023-04-11T17:40:22.337Z,10.45
2023-04-11T17:42:49.771Z,9.07
2023-04-11T17:45:18.711Z,8.82
2023-04-11T17:47:47.268Z,9.23
2023-04-11T17:50:14.656Z,9.48
2023-04-11T17:52:42.881Z,8.98
2023-04-11T17:55:11.711Z,9.43
2023-04-11T17:57:39.189Z,10.40
2023-04-11T18:00:19.984Z,10.63
2023-04-11T18:02:48.614Z,10.80
2023-04-11T18:05:23.625Z,10.23
2023-04-11T18:07:54.365Z,9.73
2023-04-11T18:10:22.109Z,9.95
2023-04-11T18:12:53.053Z,9.13
2023-04-11T18:15:22.568Z,10.07
2023-04-11T18:17:50.781Z,7.82
2023-04-11T18:20:18.248Z,8.68
2023-04-11T18:22:56.181Z,9.48
2023-04-11T18:25:23.439Z,8.63
2023-04-11T18:27:50.012Z,8.38
2023-04-11T18:30:17.424Z,8.93
2023-04-11T18:32:48.503Z,8.77
2023-04-11T18:35:17.181Z,10.23
2023-04-11T18:37:44.106Z,8.57
2023-04-11T18:40:12.596Z,8.65
2023-04-11T18:42:45.136Z,8.38
2023-04-11T18:45:13.489Z,7.80
2023-04-11T18:47:44.346Z,7.43
2023-04-11T18:50:11.402Z,7.50
2023-04-11T18:52:38.184Z,8.18
2023-04-11T18:55:05.639Z,8.77
2023-04-11T18:57:34.676Z,7.40
2023-04-11T19:00:12.839Z,8.10
2023-04-11T19:02:41.717Z,7.57
2023-04-11T19:05:13.622Z,7.82
2023-04-11T19:07:43.992Z,7.18
2023-04-11T19:10:11.672Z,7.65
2023-04-11T19:12:38.541Z,6.90
2023-04-11T19:15:07.983Z,6.90
2023-04-11T19:17:36.253Z,7.78
2023-04-11T19:20:06.675Z,7.85
2023-04-11T19:22:34.441Z,6.65
2023-04-11T19:25:00.973Z,7.57
2023-04-11T19:27:27.578Z,7.25
2023-04-11T19:29:54.153Z,7.45
2023-04-11T19:32:21.014Z,7.50
2023-04-11T19:34:49.604Z,8.27
2023-04-11T19:37:16.784Z,8.32
2023-04-11T19:39:43.934Z,8.23
2023-04-11T19:42:10.822Z,7.20
2023-04-11T19:44:37.757Z,7.90
2023-04-11T19:47:04.474Z,8.07
2023-04-11T19:49:31.027Z,8.23
2023-04-11T19:51:57.601Z,7.15
2023-04-11T19:54:24.193Z,7.72
2023-04-11T19:56:53.921Z,6.63
2023-04-11T19:59:20.601Z,6.38
2023-04-11T20:01:47.435Z,6.43
2023-04-11T20:04:16.059Z,6.13
2023-04-11T20:06:44.282Z,6.63
2023-04-11T20:09:11.913Z,5.47
2023-04-11T20:11:43.679Z,5.60
2023-04-11T20:14:10.393Z,5.65
2023-04-11T20:16:37.322Z,6.32
2023-04-11T20:19:03.993Z,5.72
2023-04-11T20:21:30.801Z,4.95
2023-04-11T20:23:57.946Z,5.80
2023-04-11T20:26:24.639Z,5.80
2023-04-11T20:28:51.238Z,5.40
2023-04-11T20:31:17.980Z,5.53
2023-04-11T20:33:47.879Z,5.20
2023-04-11T20:36:15.683Z,5.40
2023-04-11T20:38:42.694Z,5.88
2023-04-11T20:41:09.508Z,5.72
2023-04-11T20:43:42.031Z,6.38
2023-04-11T20:46:08.803Z,6.15
2023-04-11T20:48:38.076Z,5.53
2023-04-11T20:51:04.804Z,6.18
2023-04-11T20:53:31.544Z,6.13
2023-04-11T20:55:58.211Z,6.78
2023-04-11T20:58:24.764Z,6.30
2023-04-11T21:00:51.349Z,6.10
2023-04-11T21:03:18.006Z,6.20
2023-04-11T21:05:46.836Z,5.43
2023-04-11T21:08:13.666Z,5.82
2023-04-11T21:10:40.577Z,5.82
2023-04-11T21:13:07.837Z,6.28
2023-04-11T21:15:35.002Z,6.00
2023-04-11T21:18:02.096Z,6.00
2023-04-11T21:20:28.869Z,5.80
2023-04-11T21:22:55.852Z,5.40
2023-04-11T21:25:24.235Z,4.80
2023-04-11T21:27:51.058Z,5.28
2023-04-11T21:30:17.631Z,4.90
2023-04-11T21:32:44.314Z,5.07
2023-04-11T21:35:11.940Z,4.90
2023-04-11T21:37:38.955Z,4.97
2023-04-11T21:40:06.277Z,5.20
2023-04-11T21:42:32.903Z,5.47
2023-04-11T21:44:59.512Z,5.35
2023-04-11T21:47:26.243Z,5.70
2023-04-11T21:49:52.876Z,5.28
2023-04-11T21:52:19.490Z,5.47
2023-04-11T21:54:46.520Z,5.82
2023-04-11T21:57:13.187Z,5.72
2023-04-11T21:59:39.824Z,5.95
2023-04-11T22:02:06.935Z,6.22
2023-04-11T22:04:47.384Z,6.43
2023-04-11T22:07:26.602Z,5.68
2023-04-11T22:09:59.745Z,5.95
2023-04-11T22:12:27.210Z,6.13
2023-04-11T22:14:57.350Z,5.25
2023-04-11T22:17:24.183Z,5.80
2023-04-11T22:19:50.753Z,6.18
2023-04-11T22:22:18.159Z,5.90
2023-04-11T22:24:46.454Z,6.20
2023-04-11T22:27:13.692Z,6.20
2023-04-11T22:43:25.701Z,6.57
2023-04-11T22:45:53.219Z,5.78
2023-04-11T22:48:19.898Z,5.70
2023-04-11T22:50:52.884Z,5.82
2023-04-11T22:53:19.798Z,6.43
2023-04-11T22:55:46.534Z,5.97
2023-04-11T22:58:13.869Z,6.18
2023-04-11T23:00:40.461Z,6.78
2023-04-11T23:03:07.464Z,7.28
2023-04-11T23:05:36.909Z,6.95
2023-04-11T23:08:03.579Z,6.57
2023-04-11T23:10:30.369Z,6.53
2023-04-11T23:12:56.946Z,6.57
2023-04-11T23:15:23.477Z,6.68
2023-04-11T23:17:50.481Z,6.60
2023-04-11T23:20:19.006Z,6.95
2023-04-11T23:22:45.589Z,6.72
2023-04-11T23:25:14.135Z,6.50
2023-04-11T23:27:43.377Z,7.32
2023-04-11T23:30:15.189Z,7.35
2023-04-11T23:32:42.167Z,7.15
2023-04-11T23:35:09.167Z,7.22
2023-04-11T23:37:35.861Z,7.32
2023-04-11T23:40:10.039Z,7.07
2023-04-11T23:42:38.403Z,6.63
2023-04-11T23:45:06.722Z,7.82
2023-04-11T23:47:34.424Z,7.15
2023-04-11T23:50:02.675Z,7.60
2023-04-11T23:52:29.476Z,6.85
2023-04-11T23:54:56.925Z,7.18
2023-04-11T23:57:24.392Z,7.75
2023-04-11T23:59:51.037Z,7.88
